sensor_id;sensor_type;location;lat;lon;timestamp;temperature;humidity
8914;DHT22;4492;48.736;9.092;2023-05-31T00:00:11;13.10;69.40
8914;DHT22;4492;48.736;9.092;2023-05-31T00:02:37;13.00;69.30
8914;DHT22;4492;48.736;9.092;2023-05-31T00:05:03;12.90;69.60
8914;DHT22;4492;48.736;9.092;2023-05-31T00:07:28;12.80;70.10
8914;DHT22;4492;48.736;9.092;2023-05-31T00:09:54;12.80;70.80
8914;DHT22;4492;48.736;9.092;2023-05-31T00:12:19;12.80;70.80
8914;DHT22;4492;48.736;9.092;2023-05-31T00:14:46;12.70;70.90
8914;DHT22;4492;48.736;9.092;2023-05-31T00:17:11;12.70;71.20
8914;DHT22;4492;48.736;9.092;2023-05-31T00:19:37;12.60;71.40
8914;DHT22;4492;48.736;9.092;2023-05-31T00:22:03;12.60;71.40
8914;DHT22;4492;48.736;9.092;2023-05-31T00:24:28;12.60;71.30
8914;DHT22;4492;48.736;9.092;2023-05-31T00:26:54;12.60;70.70
8914;DHT22;4492;48.736;9.092;2023-05-31T00:29:19;12.70;70.90
8914;DHT22;4492;48.736;9.092;2023-05-31T00:31:45;12.60;71.40
8914;DHT22;4492;48.736;9.092;2023-05-31T00:34:10;12.60;71.80
8914;DHT22;4492;48.736;9.092;2023-05-31T00:36:37;12.50;72.40
8914;DHT22;4492;48.736;9.092;2023-05-31T00:39:02;12.40;72.20
8914;DHT22;4492;48.736;9.092;2023-05-31T00:41:28;12.30;72.60
8914;DHT22;4492;48.736;9.092;2023-05-31T00:43:54;12.30;73.20
8914;DHT22;4492;48.736;9.092;2023-05-31T00:46:28;12.20;73.70
8914;DHT22;4492;48.736;9.092;2023-05-31T00:48:55;12.20;73.60
8914;DHT22;4492;48.736;9.092;2023-05-31T00:51:21;12.10;73.90
8914;DHT22;4492;48.736;9.092;2023-05-31T00:53:48;12.00;74.20
8914;DHT22;4492;48.736;9.092;2023-05-31T00:56:14;12.00;74.30
8914;DHT22;4492;48.736;9.092;2023-05-31T00:58:41;11.90;74.30
8914;DHT22;4492;48.736;9.092;2023-05-31T01:01:07;11.90;74.60
8914;DHT22;4492;48.736;9.092;2023-05-31T01:03:34;11.80;74.40
8914;DHT22;4492;48.736;9.092;2023-05-31T01:06:00;11.80;74.70
8914;DHT22;4492;48.736;9.092;2023-05-31T01:08:26;11.80;75.10
8914;DHT22;4492;48.736;9.092;2023-05-31T01:10:53;11.70;75.00
8914;DHT22;4492;48.736;9.092;2023-05-31T01:13:30;11.70;75.00
8914;DHT22;4492;48.736;9.092;2023-05-31T01:16:08;11.70;74.90
8914;DHT22;4492;48.736;9.092;2023-05-31T01:18:40;11.70;74.70
8914;DHT22;4492;48.736;9.092;2023-05-31T01:21:11;11.70;74.80
8914;DHT22;4492;48.736;9.092;2023-05-31T01:26:36;11.70;74.30
8914;DHT22;4492;48.736;9.092;2023-05-31T01:29:09;11.70;75.20
8914;DHT22;4492;48.736;9.092;2023-05-31T01:31:36;11.70;74.30
8914;DHT22;4492;48.736;9.092;2023-05-31T01:34:06;11.70;74.10
8914;DHT22;4492;48.736;9.092;2023-05-31T01:36:31;11.80;74.00
8914;DHT22;4492;48.736;9.092;2023-05-31T01:38:57;11.70;74.00
8914;DHT22;4492;48.736;9.092;2023-05-31T01:41:24;11.70;74.30
8914;DHT22;4492;48.736;9.092;2023-05-31T01:43:52;11.70;74.30
8914;DHT22;4492;48.736;9.092;2023-05-31T01:46:18;11.70;74.50
8914;DHT22;4492;48.736;9.092;2023-05-31T01:48:45;11.60;74.60
8914;DHT22;4492;48.736;9.092;2023-05-31T01:51:13;11.60;75.00
8914;DHT22;4492;48.736;9.092;2023-05-31T01:53:40;11.50;74.90
8914;DHT22;4492;48.736;9.092;2023-05-31T01:56:07;11.50;75.20
8914;DHT22;4492;48.736;9.092;2023-05-31T01:58:35;11.50;75.70
8914;DHT22;4492;48.736;9.092;2023-05-31T02:01:01;11.40;76.30
8914;DHT22;4492;48.736;9.092;2023-05-31T02:03:27;11.40;76.10
8914;DHT22;4492;48.736;9.092;2023-05-31T02:06:00;11.40;76.50
8914;DHT22;4492;48.736;9.092;2023-05-31T02:08:26;11.30;76.80
8914;DHT22;4492;48.736;9.092;2023-05-31T02:10:52;11.20;76.80
8914;DHT22;4492;48.736;9.092;2023-05-31T02:13:18;11.20;77.40
8914;DHT22;4492;48.736;9.092;2023-05-31T02:15:44;11.20;77.50
8914;DHT22;4492;48.736;9.092;2023-05-31T02:18:10;11.10;77.40
8914;DHT22;4492;48.736;9.092;2023-05-31T02:20:35;11.10;77.70
8914;DHT22;4492;48.736;9.092;2023-05-31T02:23:01;11.10;78.00
8914;DHT22;4492;48.736;9.092;2023-05-31T02:25:27;11.00;78.30
8914;DHT22;4492;48.736;9.092;2023-05-31T02:27:52;11.00;78.60
8914;DHT22;4492;48.736;9.092;2023-05-31T02:30:19;10.80;78.80
8914;DHT22;4492;48.736;9.092;2023-05-31T02:32:44;10.70;79.00
8914;DHT22;4492;48.736;9.092;2023-05-31T02:35:11;10.70;79.40
8914;DHT22;4492;48.736;9.092;2023-05-31T02:37:38;10.70;79.80
8914;DHT22;4492;48.736;9.092;2023-05-31T02:40:05;10.70;80.00
8914;DHT22;4492;48.736;9.092;2023-05-31T02:42:39;10.60;79.90
8914;DHT22;4492;48.736;9.092;2023-05-31T02:45:05;10.60;79.90
8914;DHT22;4492;48.736;9.092;2023-05-31T02:47:31;10.60;79.90
8914;DHT22;4492;48.736;9.092;2023-05-31T02:49:57;10.50;80.00
8914;DHT22;4492;48.736;9.092;2023-05-31T02:52:23;10.50;80.30
8914;DHT22;4492;48.736;9.092;2023-05-31T02:54:50;10.40;80.60
8914;DHT22;4492;48.736;9.092;2023-05-31T02:57:15;10.40;81.10
8914;DHT22;4492;48.736;9.092;2023-05-31T02:59:43;10.30;81.40
8914;DHT22;4492;48.736;9.092;2023-05-31T03:02:09;10.20;82.30
8914;DHT22;4492;48.736;9.092;2023-05-31T03:04:35;10.20;83.40
8914;DHT22;4492;48.736;9.092;2023-05-31T03:07:01;10.10;84.30
8914;DHT22;4492;48.736;9.092;2023-05-31T03:09:26;10.10;84.70
8914;DHT22;4492;48.736;9.092;2023-05-31T03:11:52;10.10;84.90
8914;DHT22;4492;48.736;9.092;2023-05-31T03:14:17;10.00;85.30
8914;DHT22;4492;48.736;9.092;2023-05-31T03:16:43;10.00;85.60
8914;DHT22;4492;48.736;9.092;2023-05-31T03:19:09;10.00;86.30
8914;DHT22;4492;48.736;9.092;2023-05-31T03:21:34;9.90;87.70
8914;DHT22;4492;48.736;9.092;2023-05-31T03:24:01;9.90;87.90
8914;DHT22;4492;48.736;9.092;2023-05-31T03:26:26;9.90;88.70
8914;DHT22;4492;48.736;9.092;2023-05-31T03:28:52;9.90;89.10
8914;DHT22;4492;48.736;9.092;2023-05-31T03:31:18;9.80;89.20
8914;DHT22;4492;48.736;9.092;2023-05-31T03:33:44;9.90;89.40
8914;DHT22;4492;48.736;9.092;2023-05-31T03:36:10;9.90;89.10
8914;DHT22;4492;48.736;9.092;2023-05-31T03:38:35;9.90;89.30
8914;DHT22;4492;48.736;9.092;2023-05-31T03:41:01;9.90;89.90
8914;DHT22;4492;48.736;9.092;2023-05-31T03:43:27;9.90;89.80
8914;DHT22;4492;48.736;9.092;2023-05-31T03:45:52;10.00;88.40
8914;DHT22;4492;48.736;9.092;2023-05-31T03:48:18;10.10;88.10
8914;DHT22;4492;48.736;9.092;2023-05-31T03:50:44;10.20;87.80
8914;DHT22;4492;48.736;9.092;2023-05-31T03:53:10;10.30;87.50
8914;DHT22;4492;48.736;9.092;2023-05-31T03:55:35;10.40;86.90
8914;DHT22;4492;48.736;9.092;2023-05-31T03:58:02;10.50;86.10
8914;DHT22;4492;48.736;9.092;2023-05-31T04:00:28;10.70;85.70
8914;DHT22;4492;48.736;9.092;2023-05-31T04:02:54;10.80;85.20
8914;DHT22;4492;48.736;9.092;2023-05-31T04:05:19;10.90;84.60
8914;DHT22;4492;48.736;9.092;2023-05-31T04:07:45;11.00;84.30
8914;DHT22;4492;48.736;9.092;2023-05-31T04:10:11;11.10;84.40
8914;DHT22;4492;48.736;9.092;2023-05-31T04:12:36;11.10;84.20
8914;DHT22;4492;48.736;9.092;2023-05-31T04:15:02;11.10;84.20
8914;DHT22;4492;48.736;9.092;2023-05-31T04:17:28;11.20;84.00
8914;DHT22;4492;48.736;9.092;2023-05-31T04:19:53;11.30;83.90
8914;DHT22;4492;48.736;9.092;2023-05-31T04:22:19;11.40;83.90
8914;DHT22;4492;48.736;9.092;2023-05-31T04:24:45;11.40;83.30
8914;DHT22;4492;48.736;9.092;2023-05-31T04:27:11;11.50;83.20
8914;DHT22;4492;48.736;9.092;2023-05-31T04:29:37;11.50;83.40
8914;DHT22;4492;48.736;9.092;2023-05-31T04:32:02;11.50;82.90
8914;DHT22;4492;48.736;9.092;2023-05-31T04:34:28;11.60;83.10
8914;DHT22;4492;48.736;9.092;2023-05-31T04:36:54;11.60;82.90
8914;DHT22;4492;48.736;9.092;2023-05-31T04:39:19;11.70;82.20
8914;DHT22;4492;48.736;9.092;2023-05-31T04:41:47;11.90;81.50
8914;DHT22;4492;48.736;9.092;2023-05-31T04:44:13;12.00;81.30
8914;DHT22;4492;48.736;9.092;2023-05-31T04:46:38;12.10;81.20
8914;DHT22;4492;48.736;9.092;2023-05-31T04:49:06;12.20;81.30
8914;DHT22;4492;48.736;9.092;2023-05-31T04:51:32;12.20;81.20
8914;DHT22;4492;48.736;9.092;2023-05-31T04:53:58;12.20;80.60
8914;DHT22;4492;48.736;9.092;2023-05-31T04:56:24;12.30;80.80
8914;DHT22;4492;48.736;9.092;2023-05-31T04:58:50;12.40;80.50
8914;DHT22;4492;48.736;9.092;2023-05-31T05:01:16;12.40;80.80
8914;DHT22;4492;48.736;9.092;2023-05-31T05:03:42;12.40;80.70
8914;DHT22;4492;48.736;9.092;2023-05-31T05:06:14;12.50;80.90
8914;DHT22;4492;48.736;9.092;2023-05-31T05:08:44;12.50;80.70
8914;DHT22;4492;48.736;9.092;2023-05-31T05:11:10;12.60;81.00
8914;DHT22;4492;48.736;9.092;2023-05-31T05:13:36;12.60;80.70
8914;DHT22;4492;48.736;9.092;2023-05-31T05:16:02;12.70;80.70
8914;DHT22;4492;48.736;9.092;2023-05-31T05:18:28;12.80;80.30
8914;DHT22;4492;48.736;9.092;2023-05-31T05:20:54;12.90;80.30
8914;DHT22;4492;48.736;9.092;2023-05-31T05:23:20;13.00;80.40
8914;DHT22;4492;48.736;9.092;2023-05-31T05:25:45;13.10;79.50
8914;DHT22;4492;48.736;9.092;2023-05-31T05:28:11;13.10;78.90
8914;DHT22;4492;48.736;9.092;2023-05-31T05:30:37;13.30;79.00
8914;DHT22;4492;48.736;9.092;2023-05-31T05:33:03;13.30;78.70
8914;DHT22;4492;48.736;9.092;2023-05-31T05:35:28;13.40;78.50
8914;DHT22;4492;48.736;9.092;2023-05-31T05:37:54;13.50;78.20
8914;DHT22;4492;48.736;9.092;2023-05-31T05:40:20;13.60;77.50
8914;DHT22;4492;48.736;9.092;2023-05-31T05:42:47;13.70;78.30
8914;DHT22;4492;48.736;9.092;2023-05-31T05:45:13;13.90;77.10
8914;DHT22;4492;48.736;9.092;2023-05-31T05:47:38;14.00;76.40
8914;DHT22;4492;48.736;9.092;2023-05-31T05:50:04;14.10;76.10
8914;DHT22;4492;48.736;9.092;2023-05-31T05:52:30;14.20;75.30
8914;DHT22;4492;48.736;9.092;2023-05-31T05:54:56;14.40;74.80
8914;DHT22;4492;48.736;9.092;2023-05-31T05:57:21;14.50;75.20
8914;DHT22;4492;48.736;9.092;2023-05-31T05:59:47;14.60;73.70
8914;DHT22;4492;48.736;9.092;2023-05-31T06:02:12;14.80;73.10
8914;DHT22;4492;48.736;9.092;2023-05-31T06:04:38;14.80;73.30
8914;DHT22;4492;48.736;9.092;2023-05-31T06:07:04;14.90;72.70
8914;DHT22;4492;48.736;9.092;2023-05-31T06:09:29;15.00;72.60
8914;DHT22;4492;48.736;9.092;2023-05-31T06:11:55;15.10;72.40
8914;DHT22;4492;48.736;9.092;2023-05-31T06:14:20;15.20;72.60
8914;DHT22;4492;48.736;9.092;2023-05-31T06:16:46;15.30;70.80
8914;DHT22;4492;48.736;9.092;2023-05-31T06:19:11;15.40;71.50
8914;DHT22;4492;48.736;9.092;2023-05-31T06:21:37;15.50;70.90
8914;DHT22;4492;48.736;9.092;2023-05-31T06:24:03;15.60;70.50
8914;DHT22;4492;48.736;9.092;2023-05-31T06:26:29;15.70;70.30
8914;DHT22;4492;48.736;9.092;2023-05-31T06:28:58;15.70;70.50
8914;DHT22;4492;48.736;9.092;2023-05-31T06:31:26;15.80;70.40
8914;DHT22;4492;48.736;9.092;2023-05-31T06:33:52;16.00;70.60
8914;DHT22;4492;48.736;9.092;2023-05-31T06:36:18;16.00;70.00
8914;DHT22;4492;48.736;9.092;2023-05-31T06:38:43;16.10;69.10
8914;DHT22;4492;48.736;9.092;2023-05-31T06:41:11;16.20;70.10
8914;DHT22;4492;48.736;9.092;2023-05-31T06:43:37;16.30;70.00
8914;DHT22;4492;48.736;9.092;2023-05-31T06:46:02;16.50;69.20
8914;DHT22;4492;48.736;9.092;2023-05-31T06:48:28;16.50;69.30
8914;DHT22;4492;48.736;9.092;2023-05-31T06:50:54;16.50;69.50
8914;DHT22;4492;48.736;9.092;2023-05-31T06:53:19;16.50;69.00
8914;DHT22;4492;48.736;9.092;2023-05-31T06:55:45;16.50;69.00
8914;DHT22;4492;48.736;9.092;2023-05-31T06:58:10;16.60;69.40
8914;DHT22;4492;48.736;9.092;2023-05-31T07:00:36;16.70;69.70
8914;DHT22;4492;48.736;9.092;2023-05-31T07:03:02;16.80;69.60
8914;DHT22;4492;48.736;9.092;2023-05-31T07:05:28;16.90;69.40
8914;DHT22;4492;48.736;9.092;2023-05-31T07:07:54;16.80;68.20
8914;DHT22;4492;48.736;9.092;2023-05-31T07:10:20;16.90;69.20
8914;DHT22;4492;48.736;9.092;2023-05-31T07:12:46;17.00;69.20
8914;DHT22;4492;48.736;9.092;2023-05-31T07:15:11;17.10;68.10
8914;DHT22;4492;48.736;9.092;2023-05-31T07:17:37;17.30;69.20
8914;DHT22;4492;48.736;9.092;2023-05-31T07:20:02;17.40;68.70
8914;DHT22;4492;48.736;9.092;2023-05-31T07:22:30;17.50;67.90
8914;DHT22;4492;48.736;9.092;2023-05-31T07:24:56;17.70;67.80
8914;DHT22;4492;48.736;9.092;2023-05-31T07:27:22;17.70;66.80
8914;DHT22;4492;48.736;9.092;2023-05-31T07:29:48;17.70;67.90
8914;DHT22;4492;48.736;9.092;2023-05-31T07:32:13;17.90;67.70
8914;DHT22;4492;48.736;9.092;2023-05-31T07:34:39;18.10;68.00
8914;DHT22;4492;48.736;9.092;2023-05-31T07:37:05;18.30;67.30
8914;DHT22;4492;48.736;9.092;2023-05-31T07:39:30;18.40;66.40
8914;DHT22;4492;48.736;9.092;2023-05-31T07:41:56;18.50;66.80
8914;DHT22;4492;48.736;9.092;2023-05-31T07:44:24;18.60;65.90
8914;DHT22;4492;48.736;9.092;2023-05-31T07:46:50;18.60;65.90
8914;DHT22;4492;48.736;9.092;2023-05-31T07:49:15;18.50;65.40
8914;DHT22;4492;48.736;9.092;2023-05-31T07:51:41;18.60;65.60
8914;DHT22;4492;48.736;9.092;2023-05-31T07:54:06;18.70;65.70
8914;DHT22;4492;48.736;9.092;2023-05-31T07:56:32;18.60;65.50
8914;DHT22;4492;48.736;9.092;2023-05-31T07:58:58;18.60;66.60
8914;DHT22;4492;48.736;9.092;2023-05-31T08:01:23;18.80;65.80
8914;DHT22;4492;48.736;9.092;2023-05-31T08:03:49;18.90;64.70
8914;DHT22;4492;48.736;9.092;2023-05-31T08:06:17;19.00;64.70
8914;DHT22;4492;48.736;9.092;2023-05-31T08:08:43;19.20;64.80
8914;DHT22;4492;48.736;9.092;2023-05-31T08:11:09;19.10;64.50
8914;DHT22;4492;48.736;9.092;2023-05-31T08:13:35;19.10;63.70
8914;DHT22;4492;48.736;9.092;2023-05-31T08:16:00;19.10;64.40
8914;DHT22;4492;48.736;9.092;2023-05-31T08:18:26;19.30;63.20
8914;DHT22;4492;48.736;9.092;2023-05-31T08:20:51;19.40;64.10
8914;DHT22;4492;48.736;9.092;2023-05-31T08:23:18;19.40;63.80
8914;DHT22;4492;48.736;9.092;2023-05-31T08:25:43;19.50;65.80
8914;DHT22;4492;48.736;9.092;2023-05-31T08:28:09;19.60;63.90
8914;DHT22;4492;48.736;9.092;2023-05-31T08:30:35;19.70;63.00
8914;DHT22;4492;48.736;9.092;2023-05-31T08:33:01;19.70;63.20
8914;DHT22;4492;48.736;9.092;2023-05-31T08:35:27;19.70;63.30
8914;DHT22;4492;48.736;9.092;2023-05-31T08:37:52;19.70;63.10
8914;DHT22;4492;48.736;9.092;2023-05-31T08:40:20;19.80;62.40
8914;DHT22;4492;48.736;9.092;2023-05-31T08:42:57;19.80;62.50
8914;DHT22;4492;48.736;9.092;2023-05-31T08:45:26;20.00;63.80
8914;DHT22;4492;48.736;9.092;2023-05-31T08:48:04;20.20;64.50
8914;DHT22;4492;48.736;9.092;2023-05-31T08:50:32;20.30;61.90
8914;DHT22;4492;48.736;9.092;2023-05-31T08:52:58;20.40;62.80
8914;DHT22;4492;48.736;9.092;2023-05-31T08:55:24;20.60;62.20
8914;DHT22;4492;48.736;9.092;2023-05-31T08:57:51;20.60;61.00
8914;DHT22;4492;48.736;9.092;2023-05-31T09:00:18;20.70;62.50
8914;DHT22;4492;48.736;9.092;2023-05-31T09:02:44;20.80;61.10
8914;DHT22;4492;48.736;9.092;2023-05-31T09:05:13;20.70;60.80
8914;DHT22;4492;48.736;9.092;2023-05-31T09:07:40;20.80;60.40
8914;DHT22;4492;48.736;9.092;2023-05-31T09:10:06;20.90;59.80
8914;DHT22;4492;48.736;9.092;2023-05-31T09:12:34;20.80;59.90
8914;DHT22;4492;48.736;9.092;2023-05-31T09:15:00;20.80;60.80
8914;DHT22;4492;48.736;9.092;2023-05-31T09:17:26;20.90;60.50
8914;DHT22;4492;48.736;9.092;2023-05-31T09:19:53;21.00;60.40
8914;DHT22;4492;48.736;9.092;2023-05-31T09:22:22;21.10;59.30
8914;DHT22;4492;48.736;9.092;2023-05-31T09:24:59;21.20;59.00
8914;DHT22;4492;48.736;9.092;2023-05-31T09:27:26;21.20;59.20
8914;DHT22;4492;48.736;9.092;2023-05-31T09:29:53;21.00;58.20
8914;DHT22;4492;48.736;9.092;2023-05-31T09:32:19;20.90;59.40
8914;DHT22;4492;48.736;9.092;2023-05-31T09:34:45;21.00;59.10
8914;DHT22;4492;48.736;9.092;2023-05-31T09:37:24;21.00;58.60
8914;DHT22;4492;48.736;9.092;2023-05-31T09:39:56;21.00;58.70
8914;DHT22;4492;48.736;9.092;2023-05-31T09:42:25;21.20;58.30
8914;DHT22;4492;48.736;9.092;2023-05-31T09:44:52;21.40;57.90
8914;DHT22;4492;48.736;9.092;2023-05-31T09:47:23;21.40;57.50
8914;DHT22;4492;48.736;9.092;2023-05-31T09:49:49;21.40;56.60
8914;DHT22;4492;48.736;9.092;2023-05-31T09:52:15;21.30;55.90
8914;DHT22;4492;48.736;9.092;2023-05-31T09:54:41;21.20;55.30
8914;DHT22;4492;48.736;9.092;2023-05-31T09:57:06;21.20;54.40
8914;DHT22;4492;48.736;9.092;2023-05-31T09:59:39;21.30;56.70
8914;DHT22;4492;48.736;9.092;2023-05-31T10:02:06;21.50;56.50
8914;DHT22;4492;48.736;9.092;2023-05-31T10:04:32;21.70;56.10
8914;DHT22;4492;48.736;9.092;2023-05-31T10:07:00;21.70;56.20
8914;DHT22;4492;48.736;9.092;2023-05-31T10:09:26;21.80;55.60
8914;DHT22;4492;48.736;9.092;2023-05-31T10:11:53;21.90;56.10
8914;DHT22;4492;48.736;9.092;2023-05-31T10:14:25;22.00;56.10
8914;DHT22;4492;48.736;9.092;2023-05-31T10:16:59;22.20;55.50
8914;DHT22;4492;48.736;9.092;2023-05-31T10:19:34;22.10;55.00
8914;DHT22;4492;48.736;9.092;2023-05-31T10:22:03;21.90;54.70
8914;DHT22;4492;48.736;9.092;2023-05-31T10:24:40;21.90;52.80
8914;DHT22;4492;48.736;9.092;2023-05-31T10:27:27;21.90;53.40
8914;DHT22;4492;48.736;9.092;2023-05-31T10:29:56;21.80;54.00
8914;DHT22;4492;48.736;9.092;2023-05-31T10:32:29;22.00;54.30
8914;DHT22;4492;48.736;9.092;2023-05-31T10:34:57;22.00;54.20
8914;DHT22;4492;48.736;9.092;2023-05-31T10:37:24;21.90;54.10
8914;DHT22;4492;48.736;9.092;2023-05-31T10:40:07;22.00;53.30
8914;DHT22;4492;48.736;9.092;2023-05-31T10:45:09;22.20;51.90
8914;DHT22;4492;48.736;9.092;2023-05-31T10:47:53;22.10;52.10
8914;DHT22;4492;48.736;9.092;2023-05-31T10:50:21;22.10;52.20
8914;DHT22;4492;48.736;9.092;2023-05-31T10:53:08;22.10;51.30
8914;DHT22;4492;48.736;9.092;2023-05-31T10:55:40;22.10;52.40
8914;DHT22;4492;48.736;9.092;2023-05-31T10:58:07;22.30;52.00
8914;DHT22;4492;48.736;9.092;2023-05-31T11:00:48;22.20;52.30
8914;DHT22;4492;48.736;9.092;2023-05-31T11:03:21;22.20;52.80
8914;DHT22;4492;48.736;9.092;2023-05-31T11:06:00;22.10;52.10
8914;DHT22;4492;48.736;9.092;2023-05-31T11:08:27;22.10;52.40
8914;DHT22;4492;48.736;9.092;2023-05-31T11:19:20;22.80;51.60
8914;DHT22;4492;48.736;9.092;2023-05-31T11:21:53;22.50;51.50
8914;DHT22;4492;48.736;9.092;2023-05-31T11:27:02;22.70;51.40
8914;DHT22;4492;48.736;9.092;2023-05-31T11:32:21;22.80;50.70
8914;DHT22;4492;48.736;9.092;2023-05-31T11:34:51;22.80;51.20
8914;DHT22;4492;48.736;9.092;2023-05-31T11:37:19;22.80;51.20
8914;DHT22;4492;48.736;9.092;2023-05-31T11:39:46;23.00;50.80
8914;DHT22;4492;48.736;9.092;2023-05-31T11:42:13;23.00;49.60
8914;DHT22;4492;48.736;9.092;2023-05-31T11:44:43;23.10;50.80
8914;DHT22;4492;48.736;9.092;2023-05-31T11:47:20;23.10;50.30
8914;DHT22;4492;48.736;9.092;2023-05-31T11:49:46;23.00;50.30
8914;DHT22;4492;48.736;9.092;2023-05-31T11:52:16;23.00;50.10
8914;DHT22;4492;48.736;9.092;2023-05-31T11:54:44;23.10;49.80
8914;DHT22;4492;48.736;9.092;2023-05-31T11:57:11;23.00;49.10
8914;DHT22;4492;48.736;9.092;2023-05-31T11:59:37;23.10;50.10
8914;DHT22;4492;48.736;9.092;2023-05-31T12:02:05;23.10;50.20
8914;DHT22;4492;48.736;9.092;2023-05-31T12:04:35;23.30;49.30
8914;DHT22;4492;48.736;9.092;2023-05-31T12:07:06;23.30;49.50
8914;DHT22;4492;48.736;9.092;2023-05-31T12:09:35;23.50;48.80
8914;DHT22;4492;48.736;9.092;2023-05-31T12:12:02;23.60;48.50
8914;DHT22;4492;48.736;9.092;2023-05-31T12:14:29;23.60;48.70
8914;DHT22;4492;48.736;9.092;2023-05-31T12:16:55;23.60;49.40
8914;DHT22;4492;48.736;9.092;2023-05-31T12:19:21;23.70;48.90
8914;DHT22;4492;48.736;9.092;2023-05-31T12:21:47;23.70;49.50
8914;DHT22;4492;48.736;9.092;2023-05-31T12:24:17;23.60;49.10
8914;DHT22;4492;48.736;9.092;2023-05-31T12:26:47;23.60;48.40
8914;DHT22;4492;48.736;9.092;2023-05-31T12:29:17;23.70;48.30
8914;DHT22;4492;48.736;9.092;2023-05-31T12:31:43;23.80;48.20
8914;DHT22;4492;48.736;9.092;2023-05-31T12:34:16;23.90;47.90
8914;DHT22;4492;48.736;9.092;2023-05-31T12:36:44;23.80;46.80
8914;DHT22;4492;48.736;9.092;2023-05-31T12:39:20;23.90;47.80
8914;DHT22;4492;48.736;9.092;2023-05-31T12:41:50;24.10;47.30
8914;DHT22;4492;48.736;9.092;2023-05-31T12:44:20;24.30;48.10
8914;DHT22;4492;48.736;9.092;2023-05-31T12:46:48;24.40;46.20
8914;DHT22;4492;48.736;9.092;2023-05-31T12:49:28;24.40;45.20
8914;DHT22;4492;48.736;9.092;2023-05-31T12:54:32;24.40;44.30
8914;DHT22;4492;48.736;9.092;2023-05-31T12:57:00;24.40;43.70
8914;DHT22;4492;48.736;9.092;2023-05-31T12:59:30;24.40;44.50
8914;DHT22;4492;48.736;9.092;2023-05-31T13:01:59;24.40;44.10
8914;DHT22;4492;48.736;9.092;2023-05-31T13:04:25;24.40;44.90
8914;DHT22;4492;48.736;9.092;2023-05-31T13:06:51;24.40;45.00
8914;DHT22;4492;48.736;9.092;2023-05-31T13:09:18;24.40;44.40
8914;DHT22;4492;48.736;9.092;2023-05-31T13:11:43;24.40;43.80
8914;DHT22;4492;48.736;9.092;2023-05-31T13:14:10;24.50;44.20
8914;DHT22;4492;48.736;9.092;2023-05-31T13:16:36;24.60;43.80
8914;DHT22;4492;48.736;9.092;2023-05-31T13:19:04;24.60;43.40
8914;DHT22;4492;48.736;9.092;2023-05-31T13:21:30;24.60;43.30
8914;DHT22;4492;48.736;9.092;2023-05-31T13:23:57;24.60;41.80
8914;DHT22;4492;48.736;9.092;2023-05-31T13:26:25;24.60;42.20
8914;DHT22;4492;48.736;9.092;2023-05-31T13:28:52;24.70;43.60
8914;DHT22;4492;48.736;9.092;2023-05-31T13:31:18;24.70;42.70
8914;DHT22;4492;48.736;9.092;2023-05-31T13:33:44;24.80;42.20
8914;DHT22;4492;48.736;9.092;2023-05-31T13:36:13;24.90;43.20
8914;DHT22;4492;48.736;9.092;2023-05-31T13:38:39;24.80;43.20
8914;DHT22;4492;48.736;9.092;2023-05-31T13:41:05;25.00;41.40
8914;DHT22;4492;48.736;9.092;2023-05-31T13:43:31;25.00;41.90
8914;DHT22;4492;48.736;9.092;2023-05-31T13:45:57;25.10;41.90
8914;DHT22;4492;48.736;9.092;2023-05-31T13:48:23;25.00;42.50
8914;DHT22;4492;48.736;9.092;2023-05-31T13:50:49;25.10;42.10
8914;DHT22;4492;48.736;9.092;2023-05-31T13:53:14;25.10;40.20
8914;DHT22;4492;48.736;9.092;2023-05-31T13:55:40;25.00;40.10
8914;DHT22;4492;48.736;9.092;2023-05-31T13:58:06;25.00;41.00
8914;DHT22;4492;48.736;9.092;2023-05-31T14:00:32;25.10;40.00
8914;DHT22;4492;48.736;9.092;2023-05-31T14:02:59;25.10;40.60
8914;DHT22;4492;48.736;9.092;2023-05-31T14:05:25;25.10;39.90
8914;DHT22;4492;48.736;9.092;2023-05-31T14:07:53;25.10;39.90
8914;DHT22;4492;48.736;9.092;2023-05-31T14:10:19;25.20;39.70
8914;DHT22;4492;48.736;9.092;2023-05-31T14:12:46;25.20;38.90
8914;DHT22;4492;48.736;9.092;2023-05-31T14:15:16;25.10;39.70
8914;DHT22;4492;48.736;9.092;2023-05-31T14:17:42;25.30;39.20
8914;DHT22;4492;48.736;9.092;2023-05-31T14:20:08;25.30;39.70
8914;DHT22;4492;48.736;9.092;2023-05-31T14:22:33;25.30;38.10
8914;DHT22;4492;48.736;9.092;2023-05-31T14:24:59;25.30;38.60
8914;DHT22;4492;48.736;9.092;2023-05-31T14:27:25;25.20;38.20
8914;DHT22;4492;48.736;9.092;2023-05-31T14:29:50;25.30;37.90
8914;DHT22;4492;48.736;9.092;2023-05-31T14:32:17;25.30;38.40
8914;DHT22;4492;48.736;9.092;2023-05-31T14:34:46;25.20;38.60
8914;DHT22;4492;48.736;9.092;2023-05-31T14:37:12;25.40;38.20
8914;DHT22;4492;48.736;9.092;2023-05-31T14:39:38;25.60;38.40
8914;DHT22;4492;48.736;9.092;2023-05-31T14:42:04;25.80;38.70
8914;DHT22;4492;48.736;9.092;2023-05-31T14:44:31;25.90;37.70
8914;DHT22;4492;48.736;9.092;2023-05-31T14:46:57;25.80;37.20
8914;DHT22;4492;48.736;9.092;2023-05-31T14:49:22;25.60;38.30
8914;DHT22;4492;48.736;9.092;2023-05-31T14:51:49;25.80;38.30
8914;DHT22;4492;48.736;9.092;2023-05-31T14:54:18;26.00;37.40
8914;DHT22;4492;48.736;9.092;2023-05-31T14:56:45;26.00;37.70
8914;DHT22;4492;48.736;9.092;2023-05-31T14:59:11;26.10;37.60
8914;DHT22;4492;48.736;9.092;2023-05-31T15:01:37;26.10;37.90
8914;DHT22;4492;48.736;9.092;2023-05-31T15:04:09;26.10;37.60
8914;DHT22;4492;48.736;9.092;2023-05-31T15:06:35;26.10;38.40
8914;DHT22;4492;48.736;9.092;2023-05-31T15:09:01;26.10;37.50
8914;DHT22;4492;48.736;9.092;2023-05-31T15:11:28;26.00;37.40
8914;DHT22;4492;48.736;9.092;2023-05-31T15:13:54;26.10;37.60
8914;DHT22;4492;48.736;9.092;2023-05-31T15:16:20;26.10;37.20
8914;DHT22;4492;48.736;9.092;2023-05-31T15:18:46;26.60;38.30
8914;DHT22;4492;48.736;9.092;2023-05-31T15:21:12;27.00;37.90
8914;DHT22;4492;48.736;9.092;2023-05-31T15:23:37;27.40;38.20
8914;DHT22;4492;48.736;9.092;2023-05-31T15:26:03;27.50;37.10
8914;DHT22;4492;48.736;9.092;2023-05-31T15:28:29;27.60;35.90
8914;DHT22;4492;48.736;9.092;2023-05-31T15:30:54;27.80;34.80
8914;DHT22;4492;48.736;9.092;2023-05-31T15:33:20;27.70;34.80
8914;DHT22;4492;48.736;9.092;2023-05-31T15:35:46;27.60;34.50
8914;DHT22;4492;48.736;9.092;2023-05-31T15:38:11;27.50;34.30
8914;DHT22;4492;48.736;9.092;2023-05-31T15:40:37;27.60;34.60
8914;DHT22;4492;48.736;9.092;2023-05-31T15:43:03;27.70;34.30
8914;DHT22;4492;48.736;9.092;2023-05-31T15:45:28;28.00;35.10
8914;DHT22;4492;48.736;9.092;2023-05-31T15:47:54;28.50;35.50
8914;DHT22;4492;48.736;9.092;2023-05-31T15:50:20;28.80;34.30
8914;DHT22;4492;48.736;9.092;2023-05-31T15:52:46;28.80;34.10
8914;DHT22;4492;48.736;9.092;2023-05-31T15:55:11;29.10;34.20
8914;DHT22;4492;48.736;9.092;2023-05-31T15:57:37;29.10;34.60
8914;DHT22;4492;48.736;9.092;2023-05-31T16:00:03;29.50;33.30
8914;DHT22;4492;48.736;9.092;2023-05-31T16:02:29;29.60;32.60
8914;DHT22;4492;48.736;9.092;2023-05-31T16:04:54;29.80;32.40
8914;DHT22;4492;48.736;9.092;2023-05-31T16:07:20;29.40;33.00
8914;DHT22;4492;48.736;9.092;2023-05-31T16:09:45;29.50;33.00
8914;DHT22;4492;48.736;9.092;2023-05-31T16:12:11;29.50;32.30
8914;DHT22;4492;48.736;9.092;2023-05-31T16:14:36;29.20;32.70
8914;DHT22;4492;48.736;9.092;2023-05-31T16:17:02;28.80;33.00
8914;DHT22;4492;48.736;9.092;2023-05-31T16:19:28;28.70;33.60
8914;DHT22;4492;48.736;9.092;2023-05-31T16:21:54;29.20;33.70